sensor_id;sensor_type;location;lat;lon;timestamp;pressure;altitude;pressure_sealevel;temperature;humidity
13420;BME280;6781;58.440;15.470;2024-01-06T00:00:51;101367.22;;;-15.09;100.00
13420;BME280;6781;58.440;15.470;2024-01-06T00:03:18;101382.91;;;-14.88;100.00
13420;BME280;6781;58.440;15.470;2024-01-06T00:05:45;101377.84;;;-14.91;100.00
13420;BME280;6781;58.440;15.470;2024-01-06T00:08:12;101367.31;;;-15.06;100.00
13420;BME280;6781;58.440;15.470;2024-01-06T00:10:38;101351.59;;;-15.28;100.00
13420;BME280;6781;58.440;15.470;2024-01-06T00:13:05;101337.81;;;-15.42;100.00
13420;BME280;6781;58.440;15.470;2024-01-06T00:15:32;101343.47;;;-15.24;100.00
13420;BME280;6781;58.440;15.470;2024-01-06T00:18:00;101314.94;;;-15.56;100.00
13420;BME280;6781;58.440;15.470;2024-01-06T00:20:27;101326.53;;;-15.34;100.00
13420;BME280;6781;58.440;15.470;2024-01-06T00:22:54;101329.91;;;-15.32;100.00
13420;BME280;6781;58.440;15.470;2024-01-06T00:25:24;101331.56;;;-15.32;100.00
13420;BME280;6781;58.440;15.470;2024-01-06T00:27:50;101314.63;;;-15.65;100.00
13420;BME280;6781;58.440;15.470;2024-01-06T00:30:17;101311.66;;;-15.55;100.00
13420;BME280;6781;58.440;15.470;2024-01-06T00:32:44;101332.22;;;-15.36;100.00
13420;BME280;6781;58.440;15.470;2024-01-06T00:35:12;101335.84;;;-15.28;100.00
13420;BME280;6781;58.440;15.470;2024-01-06T00:37:39;101352.06;;;-15.16;100.00
13420;BME280;6781;58.440;15.470;2024-01-06T00:40:06;101343.03;;;-15.14;100.00
13420;BME280;6781;58.440;15.470;2024-01-06T00:42:33;101356.25;;;-15.15;100.00
13420;BME280;6781;58.440;15.470;2024-01-06T00:45:00;101351.00;;;-15.22;100.00
13420;BME280;6781;58.440;15.470;2024-01-06T00:47:26;101372.41;;;-15.03;100.00
13420;BME280;6781;58.440;15.470;2024-01-06T00:49:53;101363.69;;;-15.15;100.00
13420;BME280;6781;58.440;15.470;2024-01-06T00:52:21;101378.63;;;-15.15;100.00
13420;BME280;6781;58.440;15.470;2024-01-06T00:54:48;101321.78;;;-15.72;100.00
13420;BME280;6781;58.440;15.470;2024-01-06T00:57:15;101334.31;;;-15.47;100.00
13420;BME280;6781;58.440;15.470;2024-01-06T00:59:42;101338.72;;;-15.40;100.00
13420;BME280;6781;58.440;15.470;2024-01-06T01:02:09;101344.72;;;-15.35;100.00
13420;BME280;6781;58.440;15.470;2024-01-06T01:04:35;101350.47;;;-15.36;100.00
13420;BME280;6781;58.440;15.470;2024-01-06T01:07:02;101344.00;;;-15.53;100.00
13420;BME280;6781;58.440;15.470;2024-01-06T01:09:30;101328.47;;;-15.71;100.00
13420;BME280;6781;58.440;15.470;2024-01-06T01:11:57;101308.84;;;-15.86;100.00
13420;BME280;6781;58.440;15.470;2024-01-06T01:14:24;101338.25;;;-15.52;100.00
13420;BME280;6781;58.440;15.470;2024-01-06T01:16:50;101346.28;;;-15.37;100.00
13420;BME280;6781;58.440;15.470;2024-01-06T01:19:17;101332.09;;;-15.63;100.00
13420;BME280;6781;58.440;15.470;2024-01-06T01:21:44;101352.06;;;-15.38;100.00
13420;BME280;6781;58.440;15.470;2024-01-06T01:24:11;101331.31;;;-15.62;100.00
13420;BME280;6781;58.440;15.470;2024-01-06T01:26:39;101312.84;;;-15.90;100.00
13420;BME280;6781;58.440;15.470;2024-01-06T01:29:06;101317.19;;;-15.63;100.00
13420;BME280;6781;58.440;15.470;2024-01-06T01:31:32;101333.22;;;-15.54;100.00
13420;BME280;6781;58.440;15.470;2024-01-06T01:33:59;101343.22;;;-15.52;100.00
13420;BME280;6781;58.440;15.470;2024-01-06T01:36:26;101329.91;;;-15.76;100.00
13420;BME280;6781;58.440;15.470;2024-01-06T01:38:53;101340.44;;;-15.61;100.00
13420;BME280;6781;58.440;15.470;2024-01-06T01:41:19;101328.22;;;-15.77;100.00
13420;BME280;6781;58.440;15.470;2024-01-06T01:43:48;101332.53;;;-15.73;100.00
13420;BME280;6781;58.440;15.470;2024-01-06T01:46:23;101284.50;;;-16.36;100.00
13420;BME280;6781;58.440;15.470;2024-01-06T01:48:50;101276.38;;;-16.32;100.00
13420;BME280;6781;58.440;15.470;2024-01-06T01:51:17;101282.34;;;-16.08;100.00
13420;BME280;6781;58.440;15.470;2024-01-06T01:53:44;101300.84;;;-15.79;100.00
13420;BME280;6781;58.440;15.470;2024-01-06T01:56:11;101310.16;;;-15.73;100.00
13420;BME280;6781;58.440;15.470;2024-01-06T01:58:38;101296.50;;;-15.85;100.00
13420;BME280;6781;58.440;15.470;2024-01-06T02:01:07;101286.50;;;-16.07;100.00
13420;BME280;6781;58.440;15.470;2024-01-06T02:03:35;101277.25;;;-16.11;100.00
13420;BME280;6781;58.440;15.470;2024-01-06T02:06:02;101260.72;;;-16.31;100.00
13420;BME280;6781;58.440;15.470;2024-01-06T02:08:28;101285.34;;;-15.94;100.00
13420;BME280;6781;58.440;15.470;2024-01-06T02:10:55;101307.44;;;-15.79;100.00
13420;BME280;6781;58.440;15.470;2024-01-06T02:13:22;101310.06;;;-15.76;100.00
13420;BME280;6781;58.440;15.470;2024-01-06T02:15:50;101311.38;;;-15.85;100.00
13420;BME280;6781;58.440;15.470;2024-01-06T02:18:19;101316.47;;;-15.82;100.00
13420;BME280;6781;58.440;15.470;2024-01-06T02:20:46;101330.16;;;-15.70;100.00
13420;BME280;6781;58.440;15.470;2024-01-06T02:23:17;101329.13;;;-15.75;100.00
13420;BME280;6781;58.440;15.470;2024-01-06T02:25:44;101327.06;;;-15.86;100.00
13420;BME280;6781;58.440;15.470;2024-01-06T02:28:10;101303.03;;;-16.07;100.00
13420;BME280;6781;58.440;15.470;2024-01-06T02:30:37;101280.50;;;-16.33;100.00
13420;BME280;6781;58.440;15.470;2024-01-06T02:33:04;101283.16;;;-16.28;100.00
13420;BME280;6781;58.440;15.470;2024-01-06T02:35:31;101289.66;;;-16.11;100.00
13420;BME280;6781;58.440;15.470;2024-01-06T02:37:57;101281.97;;;-16.17;100.00
13420;BME280;6781;58.440;15.470;2024-01-06T02:40:26;101284.25;;;-16.22;100.00
13420;BME280;6781;58.440;15.470;2024-01-06T02:42:52;101259.25;;;-16.47;100.00
13420;BME280;6781;58.440;15.470;2024-01-06T02:45:19;101294.31;;;-15.98;100.00
13420;BME280;6781;58.440;15.470;2024-01-06T02:47:46;101297.09;;;-15.90;100.00
13420;BME280;6781;58.440;15.470;2024-01-06T02:50:13;101296.00;;;-15.97;100.00
13420;BME280;6781;58.440;15.470;2024-01-06T02:52:40;101304.00;;;-15.83;100.00
13420;BME280;6781;58.440;15.470;2024-01-06T02:55:07;101314.78;;;-15.83;100.00
13420;BME280;6781;58.440;15.470;2024-01-06T02:57:36;101298.91;;;-16.07;100.00
13420;BME280;6781;58.440;15.470;2024-01-06T03:00:03;101303.63;;;-15.92;100.00
13420;BME280;6781;58.440;15.470;2024-01-06T03:05:05;101320.09;;;-15.73;100.00
13420;BME280;6781;58.440;15.470;2024-01-06T03:07:32;101327.56;;;-15.73;100.00
13420;BME280;6781;58.440;15.470;2024-01-06T03:09:58;101343.72;;;-15.62;100.00
13420;BME280;6781;58.440;15.470;2024-01-06T03:12:25;101342.50;;;-15.72;100.00
13420;BME280;6781;58.440;15.470;2024-01-06T03:14:54;101332.28;;;-15.79;100.00
13420;BME280;6781;58.440;15.470;2024-01-06T03:17:20;101343.13;;;-15.77;100.00
13420;BME280;6781;58.440;15.470;2024-01-06T03:19:47;101343.25;;;-15.74;100.00
13420;BME280;6781;58.440;15.470;2024-01-06T03:22:14;101339.66;;;-15.81;100.00
13420;BME280;6781;58.440;15.470;2024-01-06T03:24:41;101339.00;;;-15.77;100.00
13420;BME280;6781;58.440;15.470;2024-01-06T03:27:08;101351.72;;;-15.69;100.00
13420;BME280;6781;58.440;15.470;2024-01-06T03:29:35;101344.94;;;-15.73;100.00
13420;BME280;6781;58.440;15.470;2024-01-06T03:32:03;101348.34;;;-15.71;100.00
13420;BME280;6781;58.440;15.470;2024-01-06T03:34:30;101354.03;;;-15.74;100.00
13420;BME280;6781;58.440;15.470;2024-01-06T03:36:56;101348.22;;;-15.74;100.00
13420;BME280;6781;58.440;15.470;2024-01-06T03:39:23;101351.72;;;-15.69;100.00
13420;BME280;6781;58.440;15.470;2024-01-06T03:41:50;101324.09;;;-15.98;100.00
13420;BME280;6781;58.440;15.470;2024-01-06T03:44:17;101338.03;;;-15.81;100.00
13420;BME280;6781;58.440;15.470;2024-01-06T03:46:43;101337.13;;;-15.83;100.00
13420;BME280;6781;58.440;15.470;2024-01-06T03:49:12;101336.72;;;-15.93;100.00
13420;BME280;6781;58.440;15.470;2024-01-06T03:51:38;101339.13;;;-15.95;100.00
13420;BME280;6781;58.440;15.470;2024-01-06T03:54:05;101340.75;;;-15.95;100.00
13420;BME280;6781;58.440;15.470;2024-01-06T03:56:32;101335.84;;;-15.94;100.00
13420;BME280;6781;58.440;15.470;2024-01-06T03:58:59;101342.28;;;-15.99;100.00
13420;BME280;6781;58.440;15.470;2024-01-06T04:01:25;101326.09;;;-16.10;100.00
13420;BME280;6781;58.440;15.470;2024-01-06T04:03:53;101335.25;;;-16.09;100.00
13420;BME280;6781;58.440;15.470;2024-01-06T04:06:21;101322.88;;;-16.28;100.00
13420;BME280;6781;58.440;15.470;2024-01-06T04:08:48;101333.53;;;-16.10;100.00
13420;BME280;6781;58.440;15.470;2024-01-06T04:11:15;101337.06;;;-16.05;100.00
13420;BME280;6781;58.440;15.470;2024-01-06T04:13:42;101333.66;;;-16.07;100.00
13420;BME280;6781;58.440;15.470;2024-01-06T04:16:09;101339.97;;;-16.15;100.00
13420;BME280;6781;58.440;15.470;2024-01-06T04:18:35;101333.53;;;-16.10;100.00
13420;BME280;6781;58.440;15.470;2024-01-06T04:21:02;101310.44;;;-16.49;100.00
13420;BME280;6781;58.440;15.470;2024-01-06T04:23:31;101294.13;;;-16.63;100.00
13420;BME280;6781;58.440;15.470;2024-01-06T04:25:58;101298.38;;;-16.61;100.00
13420;BME280;6781;58.440;15.470;2024-01-06T04:28:25;101310.63;;;-16.44;100.00
13420;BME280;6781;58.440;15.470;2024-01-06T04:30:51;101307.44;;;-16.61;100.00
13420;BME280;6781;58.440;15.470;2024-01-06T04:33:18;101279.75;;;-16.91;100.00
13420;BME280;6781;58.440;15.470;2024-01-06T04:35:45;101282.75;;;-16.79;100.00
13420;BME280;6781;58.440;15.470;2024-01-06T04:38:11;101275.84;;;-16.86;100.00
13420;BME280;6781;58.440;15.470;2024-01-06T04:40:40;101271.53;;;-16.90;100.00
13420;BME280;6781;58.440;15.470;2024-01-06T04:43:07;101265.78;;;-16.89;100.00
13420;BME280;6781;58.440;15.470;2024-01-06T04:45:33;101262.53;;;-16.88;100.00
13420;BME280;6781;58.440;15.470;2024-01-06T04:48:02;101283.06;;;-16.71;100.00
13420;BME280;6781;58.440;15.470;2024-01-06T04:50:29;101291.72;;;-16.62;100.00
13420;BME280;6781;58.440;15.470;2024-01-06T04:52:56;101292.16;;;-16.72;100.00
13420;BME280;6781;58.440;15.470;2024-01-06T04:55:23;101316.25;;;-16.49;100.00
13420;BME280;6781;58.440;15.470;2024-01-06T04:57:51;101312.78;;;-16.52;100.00
13420;BME280;6781;58.440;15.470;2024-01-06T05:00:18;101301.88;;;-16.76;100.00
13420;BME280;6781;58.440;15.470;2024-01-06T05:02:44;101282.09;;;-16.94;100.00
13420;BME280;6781;58.440;15.470;2024-01-06T05:05:11;101293.19;;;-16.67;100.00
13420;BME280;6781;58.440;15.470;2024-01-06T05:07:38;101295.34;;;-16.74;100.00
13420;BME280;6781;58.440;15.470;2024-01-06T05:10:05;101274.47;;;-16.99;100.00
13420;BME280;6781;58.440;15.470;2024-01-06T05:12:32;101297.16;;;-16.70;100.00
13420;BME280;6781;58.440;15.470;2024-01-06T05:15:00;101304.38;;;-16.56;100.00
13420;BME280;6781;58.440;15.470;2024-01-06T05:17:27;101259.25;;;-17.26;100.00
13420;BME280;6781;58.440;15.470;2024-01-06T05:19:54;101269.97;;;-17.07;100.00
13420;BME280;6781;58.440;15.470;2024-01-06T05:22:22;101260.72;;;-17.12;100.00
13420;BME280;6781;58.440;15.470;2024-01-06T05:24:49;101282.38;;;-16.88;100.00
13420;BME280;6781;58.440;15.470;2024-01-06T05:27:20;101265.34;;;-17.19;100.00
13420;BME280;6781;58.440;15.470;2024-01-06T05:29:47;101282.81;;;-16.97;100.00
13420;BME280;6781;58.440;15.470;2024-01-06T05:32:18;101292.16;;;-16.91;100.00
13420;BME280;6781;58.440;15.470;2024-01-06T05:34:45;101294.81;;;-16.87;100.00
13420;BME280;6781;58.440;15.470;2024-01-06T05:37:12;101309.44;;;-16.93;100.00
13420;BME280;6781;58.440;15.470;2024-01-06T05:39:38;101318.50;;;-16.74;100.00
13420;BME280;6781;58.440;15.470;2024-01-06T05:42:06;101325.69;;;-16.80;100.00
13420;BME280;6781;58.440;15.470;2024-01-06T05:44:35;101332.34;;;-16.79;100.00
13420;BME280;6781;58.440;15.470;2024-01-06T05:47:01;101340.81;;;-16.74;100.00
13420;BME280;6781;58.440;15.470;2024-01-06T05:49:30;101347.97;;;-16.61;100.00
13420;BME280;6781;58.440;15.470;2024-01-06T05:51:56;101343.44;;;-16.71;100.00
13420;BME280;6781;58.440;15.470;2024-01-06T05:54:23;101337.44;;;-16.76;100.00
13420;BME280;6781;58.440;15.470;2024-01-06T05:56:50;101353.63;;;-16.65;100.00
13420;BME280;6781;58.440;15.470;2024-01-06T05:59:17;101355.41;;;-16.61;100.00
13420;BME280;6781;58.440;15.470;2024-01-06T06:01:44;101352.75;;;-16.65;100.00
13420;BME280;6781;58.440;15.470;2024-01-06T06:04:10;101327.31;;;-17.00;100.00
13420;BME280;6781;58.440;15.470;2024-01-06T06:06:39;101343.81;;;-16.81;100.00
13420;BME280;6781;58.440;15.470;2024-01-06T06:09:06;101352.69;;;-16.67;100.00
13420;BME280;6781;58.440;15.470;2024-01-06T06:11:35;101343.81;;;-16.81;100.00
13420;BME280;6781;58.440;15.470;2024-01-06T06:14:02;101330.97;;;-16.92;100.00
13420;BME280;6781;58.440;15.470;2024-01-06T06:16:29;101336.38;;;-16.81;100.00
13420;BME280;6781;58.440;15.470;2024-01-06T06:18:56;101338.22;;;-16.77;100.00
13420;BME280;6781;58.440;15.470;2024-01-06T06:21:23;101324.75;;;-17.01;100.00
13420;BME280;6781;58.440;15.470;2024-01-06T06:23:51;101315.16;;;-17.13;100.00
13420;BME280;6781;58.440;15.470;2024-01-06T06:26:18;101304.69;;;-17.25;100.00
13420;BME280;6781;58.440;15.470;2024-01-06T06:28:45;101317.13;;;-17.06;100.00
13420;BME280;6781;58.440;15.470;2024-01-06T06:31:12;101328.53;;;-16.90;100.00
13420;BME280;6781;58.440;15.470;2024-01-06T06:33:38;101326.00;;;-16.92;100.00
13420;BME280;6781;58.440;15.470;2024-01-06T06:36:05;101326.38;;;-17.02;100.00
13420;BME280;6781;58.440;15.470;2024-01-06T06:38:32;101318.84;;;-17.23;100.00
13420;BME280;6781;58.440;15.470;2024-01-06T06:41:01;101312.34;;;-17.21;100.00
13420;BME280;6781;58.440;15.470;2024-01-06T06:43:28;101304.69;;;-17.25;100.00
13420;BME280;6781;58.440;15.470;2024-01-06T06:45:54;101290.03;;;-17.40;100.00
13420;BME280;6781;58.440;15.470;2024-01-06T06:48:21;101329.97;;;-16.95;100.00
13420;BME280;6781;58.440;15.470;2024-01-06T06:50:48;101336.13;;;-16.87;100.00
13420;BME280;6781;58.440;15.470;2024-01-06T06:53:15;101334.94;;;-16.95;100.00
13420;BME280;6781;58.440;15.470;2024-01-06T06:55:42;101329.31;;;-17.10;100.00
13420;BME280;6781;58.440;15.470;2024-01-06T06:58:10;101352.41;;;-16.92;100.00
13420;BME280;6781;58.440;15.470;2024-01-06T07:00:37;101336.81;;;-17.09;100.00
13420;BME280;6781;58.440;15.470;2024-01-06T07:03:04;101352.22;;;-16.97;100.00
13420;BME280;6781;58.440;15.470;2024-01-06T07:05:31;101353.06;;;-16.96;100.00
13420;BME280;6781;58.440;15.470;2024-01-06T07:07:59;101368.13;;;-16.92;100.00
13420;BME280;6781;58.440;15.470;2024-01-06T07:10:26;101369.78;;;-16.92;100.00
13420;BME280;6781;58.440;15.470;2024-01-06T07:12:53;101365.06;;;-17.05;100.00
13420;BME280;6781;58.440;15.470;2024-01-06T07:15:22;101374.59;;;-16.95;100.00
13420;BME280;6781;58.440;15.470;2024-01-06T07:17:49;101328.97;;;-17.55;100.00
13420;BME280;6781;58.440;15.470;2024-01-06T07:20:15;101289.88;;;-17.98;100.00
13420;BME280;6781;58.440;15.470;2024-01-06T07:22:42;101279.50;;;-17.91;100.00
13420;BME280;6781;58.440;15.470;2024-01-06T07:25:09;101257.50;;;-18.02;100.00
13420;BME280;6781;58.440;15.470;2024-01-06T07:27:36;101246.03;;;-18.18;100.00
13420;BME280;6781;58.440;15.470;2024-01-06T07:30:04;101245.84;;;-18.05;100.00
13420;BME280;6781;58.440;15.470;2024-01-06T07:32:34;101247.47;;;-18.05;100.00
13420;BME280;6781;58.440;15.470;2024-01-06T07:35:01;101227.81;;;-18.20;100.00
13420;BME280;6781;58.440;15.470;2024-01-06T07:37:28;101258.44;;;-17.83;100.00
13420;BME280;6781;58.440;15.470;2024-01-06T07:39:55;101289.84;;;-17.44;100.00
13420;BME280;6781;58.440;15.470;2024-01-06T07:42:21;101291.66;;;-17.40;100.00
13420;BME280;6781;58.440;15.470;2024-01-06T07:44:48;101321.97;;;-17.27;100.00
13420;BME280;6781;58.440;15.470;2024-01-06T07:47:15;101326.53;;;-17.36;100.00
13420;BME280;6781;58.440;15.470;2024-01-06T07:49:43;101341.41;;;-17.36;100.00
13420;BME280;6781;58.440;15.470;2024-01-06T07:52:12;101343.19;;;-17.33;100.00
13420;BME280;6781;58.440;15.470;2024-01-06T07:54:38;101343.31;;;-17.48;100.00
13420;BME280;6781;58.440;15.470;2024-01-06T07:57:05;101357.81;;;-17.38;100.00
13420;BME280;6781;58.440;15.470;2024-01-06T07:59:32;101336.63;;;-17.68;100.00
13420;BME280;6781;58.440;15.470;2024-01-06T08:01:59;101341.69;;;-17.48;100.00
13420;BME280;6781;58.440;15.470;2024-01-06T08:04:26;101354.31;;;-17.24;100.00
13420;BME280;6781;58.440;15.470;2024-01-06T08:06:54;101360.94;;;-17.42;100.00
13420;BME280;6781;58.440;15.470;2024-01-06T08:09:21;101343.25;;;-17.50;100.00
13420;BME280;6781;58.440;15.470;2024-01-06T08:11:48;101364.88;;;-17.28;100.00
13420;BME280;6781;58.440;15.470;2024-01-06T08:14:15;101362.63;;;-17.41;100.00
13420;BME280;6781;58.440;15.470;2024-01-06T08:16:42;101381.97;;;-17.15;100.00
13420;BME280;6781;58.440;15.470;2024-01-06T08:19:09;101368.91;;;-17.30;100.00
13420;BME280;6781;58.440;15.470;2024-01-06T08:21:36;101369.81;;;-17.28;100.00
13420;BME280;6781;58.440;15.470;2024-01-06T08:24:05;101374.84;;;-17.26;100.00
13420;BME280;6781;58.440;15.470;2024-01-06T08:26:32;101386.44;;;-17.25;100.00
13420;BME280;6781;58.440;15.470;2024-01-06T08:29:02;101379.28;;;-17.38;100.00
13420;BME280;6781;58.440;15.470;2024-01-06T08:31:29;101356.16;;;-17.74;100.00
13420;BME280;6781;58.440;15.470;2024-01-06T08:33:55;101337.75;;;-17.80;100.00
13420;BME280;6781;58.440;15.470;2024-01-06T08:36:22;101332.31;;;-17.72;100.00
13420;BME280;6781;58.440;15.470;2024-01-06T08:38:49;101354.28;;;-17.43;100.00
13420;BME280;6781;58.440;15.470;2024-01-06T08:41:17;101375.06;;;-17.22;100.00
13420;BME280;6781;58.440;15.470;2024-01-06T08:43:44;101397.25;;;-17.05;100.00
13420;BME280;6781;58.440;15.470;2024-01-06T08:46:10;101405.19;;;-17.13;100.00
13420;BME280;6781;58.440;15.470;2024-01-06T08:48:37;101427.94;;;-17.03;100.00
13420;BME280;6781;58.440;15.470;2024-01-06T08:51:04;101439.19;;;-16.92;100.00
13420;BME280;6781;58.440;15.470;2024-01-06T08:53:31;101423.31;;;-17.14;100.00
13420;BME280;6781;58.440;15.470;2024-01-06T08:55:58;101438.47;;;-17.07;100.00
13420;BME280;6781;58.440;15.470;2024-01-06T08:58:26;101442.00;;;-17.02;100.00
13420;BME280;6781;58.440;15.470;2024-01-06T09:00:53;101448.81;;;-16.98;100.00
13420;BME280;6781;58.440;15.470;2024-01-06T09:03:19;101455.75;;;-16.91;100.00
13420;BME280;6781;58.440;15.470;2024-01-06T09:05:50;101418.81;;;-17.40;100.00
13420;BME280;6781;58.440;15.470;2024-01-06T09:08:17;101387.69;;;-17.70;100.00
13420;BME280;6781;58.440;15.470;2024-01-06T09:10:44;101380.69;;;-17.61;100.00
13420;BME280;6781;58.440;15.470;2024-01-06T09:13:10;101387.94;;;-17.29;100.00
13420;BME280;6781;58.440;15.470;2024-01-06T09:15:39;101410.56;;;-17.03;100.00
13420;BME280;6781;58.440;15.470;2024-01-06T09:18:06;101416.09;;;-16.91;100.00
13420;BME280;6781;58.440;15.470;2024-01-06T09:20:33;101418.19;;;-16.81;100.00
13420;BME280;6781;58.440;15.470;2024-01-06T09:22:59;101423.00;;;-16.84;100.00
13420;BME280;6781;58.440;15.470;2024-01-06T09:25:27;101426.41;;;-16.82;100.00
13420;BME280;6781;58.440;15.470;2024-01-06T09:27:53;101443.13;;;-16.78;100.00
13420;BME280;6781;58.440;15.470;2024-01-06T09:30:20;101446.94;;;-16.67;100.00
13420;BME280;6781;58.440;15.470;2024-01-06T09:32:49;101442.88;;;-16.65;100.00
13420;BME280;6781;58.440;15.470;2024-01-06T09:35:15;101456.16;;;-16.63;100.00
13420;BME280;6781;58.440;15.470;2024-01-06T09:37:42;101451.19;;;-16.64;100.00
13420;BME280;6781;58.440;15.470;2024-01-06T09:40:11;101459.63;;;-16.59;100.00
13420;BME280;6781;58.440;15.470;2024-01-06T09:42:38;101473.28;;;-16.50;100.00
13420;BME280;6781;58.440;15.470;2024-01-06T09:45:06;101470.81;;;-16.50;100.00
13420;BME280;6781;58.440;15.470;2024-01-06T09:47:33;101480.09;;;-16.46;100.00
13420;BME280;6781;58.440;15.470;2024-01-06T09:50:02;101483.63;;;-16.40;100.00
13420;BME280;6781;58.440;15.470;2024-01-06T09:52:32;101481.00;;;-16.43;100.00
13420;BME280;6781;58.440;15.470;2024-01-06T09:54:59;101474.63;;;-16.38;100.00
13420;BME280;6781;58.440;15.470;2024-01-06T09:57:26;101483.81;;;-16.36;100.00
13420;BME280;6781;58.440;15.470;2024-01-06T09:59:53;101488.06;;;-16.33;100.00
13420;BME280;6781;58.440;15.470;2024-01-06T10:02:20;101488.22;;;-16.30;100.00
13420;BME280;6781;58.440;15.470;2024-01-06T10:04:48;101491.47;;;-16.31;100.00
13420;BME280;6781;58.440;15.470;2024-01-06T10:07:16;101488.47;;;-16.24;100.00
13420;BME280;6781;58.440;15.470;2024-01-06T10:09:43;101500.22;;;-16.20;100.00
13420;BME280;6781;58.440;15.470;2024-01-06T10:12:10;101501.81;;;-16.22;100.00
13420;BME280;6781;58.440;15.470;2024-01-06T10:14:37;101506.31;;;-16.14;100.00
13420;BME280;6781;58.440;15.470;2024-01-06T10:17:05;101499.13;;;-16.27;100.00
13420;BME280;6781;58.440;15.470;2024-01-06T10:19:32;101509.44;;;-16.18;100.00
13420;BME280;6781;58.440;15.470;2024-01-06T10:21:59;101501.66;;;-16.25;100.00
13420;BME280;6781;58.440;15.470;2024-01-06T10:24:29;101513.44;;;-16.21;100.00
13420;BME280;6781;58.440;15.470;2024-01-06T10:26:57;101521.47;;;-16.07;100.00
13420;BME280;6781;58.440;15.470;2024-01-06T10:29:24;101531.66;;;-16.01;100.00
13420;BME280;6781;58.440;15.470;2024-01-06T10:31:51;101521.53;;;-16.06;100.00
13420;BME280;6781;58.440;15.470;2024-01-06T10:34:18;101525.06;;;-16.01;100.00
13420;BME280;6781;58.440;15.470;2024-01-06T10:36:45;101536.31;;;-15.90;100.00
13420;BME280;6781;58.440;15.470;2024-01-06T10:39:13;101544.81;;;-15.85;100.00
13420;BME280;6781;58.440;15.470;2024-01-06T10:41:42;101554.03;;;-15.82;100.00
13420;BME280;6781;58.440;15.470;2024-01-06T10:44:10;101550.75;;;-15.81;100.00
13420;BME280;6781;58.440;15.470;2024-01-06T10:46:37;101546.72;;;-15.79;100.00
13420;BME280;6781;58.440;15.470;2024-01-06T10:49:05;101550.63;;;-15.84;100.00
13420;BME280;6781;58.440;15.470;2024-01-06T10:51:33;101556.72;;;-15.77;100.00
13420;BME280;6781;58.440;15.470;2024-01-06T10:54:00;101557.69;;;-15.74;100.00
13420;BME280;6781;58.440;15.470;2024-01-06T10:56:27;101563.56;;;-15.72;100.00
13420;BME280;6781;58.440;15.470;2024-01-06T10:58:57;101567.03;;;-15.68;100.00
13420;BME280;6781;58.440;15.470;2024-01-06T11:01:24;101561.41;;;-15.64;100.00
13420;BME280;6781;58.440;15.470;2024-01-06T11:03:50;101571.34;;;-15.64;100.00
13420;BME280;6781;58.440;15.470;2024-01-06T11:06:19;101559.19;;;-15.77;100.00
13420;BME280;6781;58.440;15.470;2024-01-06T11:08:48;101561.69;;;-15.77;100.00
13420;BME280;6781;58.440;15.470;2024-01-06T11:11:16;101568.47;;;-15.73;100.00
13420;BME280;6781;58.440;15.470;2024-01-06T11:13:44;101567.81;;;-15.69;100.00
13420;BME280;6781;58.440;15.470;2024-01-06T11:16:14;101563.50;;;-15.73;100.00
13420;BME280;6781;58.440;15.470;2024-01-06T11:18:59;101574.69;;;-15.64;100.00
13420;BME280;6781;58.440;15.470;2024-01-06T11:21:26;101576.31;;;-15.64;100.00
13420;BME280;6781;58.440;15.470;2024-01-06T11:26:39;101558.00;;;-15.86;100.00
13420;BME280;6781;58.440;15.470;2024-01-06T11:29:06;101556.69;;;-15.97;100.00
13420;BME280;6781;58.440;15.470;2024-01-06T11:31:35;101557.47;;;-15.98;100.00
13420;BME280;6781;58.440;15.470;2024-01-06T11:34:12;101565.91;;;-15.94;100.00
13420;BME280;6781;58.440;15.470;2024-01-06T11:36:39;101567.09;;;-15.86;100.00
13420;BME280;6781;58.440;15.470;2024-01-06T11:39:06;101592.00;;;-15.65;100.00
13420;BME280;6781;58.440;15.470;2024-01-06T11:41:44;101595.41;;;-15.63;100.00
13420;BME280;6781;58.440;15.470;2024-01-06T11:44:16;101599.13;;;-15.52;100.00
13420;BME280;6781;58.440;15.470;2024-01-06T11:46:46;101608.47;;;-15.47;100.00
13420;BME280;6781;58.440;15.470;2024-01-06T11:49:14;101616.13;;;-15.42;100.00
13420;BME280;6781;58.440;15.470;2024-01-06T11:51:41;101622.09;;;-15.38;100.00
13420;BME280;6781;58.440;15.470;2024-01-06T11:54:08;101627.31;;;-15.32;100.00
13420;BME280;6781;58.440;15.470;2024-01-06T11:56:37;101619.91;;;-15.31;100.00
13420;BME280;6781;58.440;15.470;2024-01-06T11:59:05;101625.03;;;-15.28;100.00
13420;BME280;6781;58.440;15.470;2024-01-06T12:01:35;101633.53;;;-15.23;100.00
13420;BME280;6781;58.440;15.470;2024-01-06T12:04:04;101626.97;;;-15.21;100.00
13420;BME280;6781;58.440;15.470;2024-01-06T12:06:32;101633.78;;;-15.17;100.00
13420;BME280;6781;58.440;15.470;2024-01-06T12:09:04;101633.00;;;-15.16;100.00
13420;BME280;6781;58.440;15.470;2024-01-06T12:11:31;101643.13;;;-15.11;100.00
13420;BME280;6781;58.440;15.470;2024-01-06T12:13:58;101639.00;;;-15.10;100.00
13420;BME280;6781;58.440;15.470;2024-01-06T12:16:25;101636.59;;;-15.09;100.00
13420;BME280;6781;58.440;15.470;2024-01-06T12:18:52;101641.63;;;-15.07;100.00
13420;BME280;6781;58.440;15.470;2024-01-06T12:21:22;101645.81;;;-15.06;100.00
13420;BME280;6781;58.440;15.470;2024-01-06T12:23:49;101650.13;;;-15.02;100.00
13420;BME280;6781;58.440;15.470;2024-01-06T12:26:16;101661.84;;;-15.00;100.00
13420;BME280;6781;58.440;15.470;2024-01-06T12:28:44;101659.16;;;-15.04;100.00
13420;BME280;6781;58.440;15.470;2024-01-06T12:31:11;101656.09;;;-15.18;100.00
13420;BME280;6781;58.440;15.470;2024-01-06T12:33:38;101669.63;;;-15.11;100.00
13420;BME280;6781;58.440;15.470;2024-01-06T12:38:34;101690.81;;;-15.00;100.00